Pietermaritzburg, South Africa
Current Conditions -  °F | °C
As of 2:00 AM on Sunday 21 Dec 2014 (Local Time) from FALE Reporting Station
Drizzle Drizzle  
Wind Chill: 72°   Ceiling: 1300
Heat Index: 72°   Visibility: 6mi
Dew Point: 68°   Wind: 1mph
Humidity: 88%   Direction: NA
Pressure: 29.94"   Gusts: NA
Location:  29.61°S, 30.39°E
Report Text: FALE 210000Z VRB01KT 9999 DZ BKN013 OVC020 22/20 Q1014 NOSIG
Loading
Personal Weather Stations






























Interactive Weather Map New forecast layout! Learn more

10-Day Weather Forecast

Advertisements
Track Severe Weather on mobile